sensor_id;sensor_type;location;lat;lon;timestamp;temperature;humidity
43679;DHT22;29279;50.858;4.392;2023-06-22T00:01:58;23.40;96.60
43679;DHT22;29279;50.858;4.392;2023-06-22T00:04:24;23.40;96.50
43679;DHT22;29279;50.858;4.392;2023-06-22T00:06:50;23.40;96.60
43679;DHT22;29279;50.858;4.392;2023-06-22T00:09:16;23.40;96.40
43679;DHT22;29279;50.858;4.392;2023-06-22T00:11:42;23.30;96.40
43679;DHT22;29279;50.858;4.392;2023-06-22T00:14:07;23.20;96.40
43679;DHT22;29279;50.858;4.392;2023-06-22T00:16:33;23.20;96.40
43679;DHT22;29279;50.858;4.392;2023-06-22T00:18:59;23.20;96.70
43679;DHT22;29279;50.858;4.392;2023-06-22T00:21:29;23.20;96.90
43679;DHT22;29279;50.858;4.392;2023-06-22T00:23:56;23.20;97.00
43679;DHT22;29279;50.858;4.392;2023-06-22T00:26:23;23.30;96.80
43679;DHT22;29279;50.858;4.392;2023-06-22T00:28:48;23.30;96.70
43679;DHT22;29279;50.858;4.392;2023-06-22T00:31:14;23.30;96.70
43679;DHT22;29279;50.858;4.392;2023-06-22T00:33:40;23.30;96.70
43679;DHT22;29279;50.858;4.392;2023-06-22T00:36:06;23.20;96.90
43679;DHT22;29279;50.858;4.392;2023-06-22T00:38:33;23.10;97.00
43679;DHT22;29279;50.858;4.392;2023-06-22T00:40:59;23.20;97.10
43679;DHT22;29279;50.858;4.392;2023-06-22T00:43:24;23.20;97.10
43679;DHT22;29279;50.858;4.392;2023-06-22T00:45:50;23.20;97.20
43679;DHT22;29279;50.858;4.392;2023-06-22T00:48:16;23.20;97.20
43679;DHT22;29279;50.858;4.392;2023-06-22T00:50:42;23.30;97.30
43679;DHT22;29279;50.858;4.392;2023-06-22T00:53:09;23.20;97.30
43679;DHT22;29279;50.858;4.392;2023-06-22T00:55:36;23.30;97.40
43679;DHT22;29279;50.858;4.392;2023-06-22T00:58:08;23.30;97.30
43679;DHT22;29279;50.858;4.392;2023-06-22T01:00:36;23.30;97.40
43679;DHT22;29279;50.858;4.392;2023-06-22T01:03:02;23.20;97.40
43679;DHT22;29279;50.858;4.392;2023-06-22T01:05:28;23.30;97.30
43679;DHT22;29279;50.858;4.392;2023-06-22T01:13:11;23.30;97.40
43679;DHT22;29279;50.858;4.392;2023-06-22T01:15:47;23.30;97.50
43679;DHT22;29279;50.858;4.392;2023-06-22T01:18:17;23.20;97.50
43679;DHT22;29279;50.858;4.392;2023-06-22T01:20:45;23.20;97.60
43679;DHT22;29279;50.858;4.392;2023-06-22T01:26:33;23.20;97.80
43679;DHT22;29279;50.858;4.392;2023-06-22T01:29:01;23.20;97.90
43679;DHT22;29279;50.858;4.392;2023-06-22T01:31:29;23.10;98.10
43679;DHT22;29279;50.858;4.392;2023-06-22T01:34:02;23.00;98.20
43679;DHT22;29279;50.858;4.392;2023-06-22T01:36:29;23.00;98.40
43679;DHT22;29279;50.858;4.392;2023-06-22T01:38:57;23.00;98.50
43679;DHT22;29279;50.858;4.392;2023-06-22T01:41:25;23.00;98.70
43679;DHT22;29279;50.858;4.392;2023-06-22T01:43:53;22.90;98.70
43679;DHT22;29279;50.858;4.392;2023-06-22T01:46:21;22.90;98.80
43679;DHT22;29279;50.858;4.392;2023-06-22T01:48:47;22.80;99.00
43679;DHT22;29279;50.858;4.392;2023-06-22T01:51:13;22.80;99.10
43679;DHT22;29279;50.858;4.392;2023-06-22T01:53:39;22.70;99.20
43679;DHT22;29279;50.858;4.392;2023-06-22T01:56:05;22.70;99.40
43679;DHT22;29279;50.858;4.392;2023-06-22T01:58:32;22.70;99.30
43679;DHT22;29279;50.858;4.392;2023-06-22T02:01:10;22.70;99.40
43679;DHT22;29279;50.858;4.392;2023-06-22T02:03:41;22.70;99.50
43679;DHT22;29279;50.858;4.392;2023-06-22T02:06:16;22.60;99.60
43679;DHT22;29279;50.858;4.392;2023-06-22T02:08:54;22.60;99.70
43679;DHT22;29279;50.858;4.392;2023-06-22T02:11:21;22.60;99.70
43679;DHT22;29279;50.858;4.392;2023-06-22T02:13:48;22.50;99.80
43679;DHT22;29279;50.858;4.392;2023-06-22T02:16:15;22.50;99.70
43679;DHT22;29279;50.858;4.392;2023-06-22T02:18:50;22.50;99.70
43679;DHT22;29279;50.858;4.392;2023-06-22T02:21:16;22.40;99.60
43679;DHT22;29279;50.858;4.392;2023-06-22T02:23:42;22.40;99.70
43679;DHT22;29279;50.858;4.392;2023-06-22T02:26:08;22.30;99.90
43679;DHT22;29279;50.858;4.392;2023-06-22T02:28:34;22.30;99.90
43679;DHT22;29279;50.858;4.392;2023-06-22T02:30:59;22.20;99.90
43679;DHT22;29279;50.858;4.392;2023-06-22T02:33:25;22.20;99.90
43679;DHT22;29279;50.858;4.392;2023-06-22T02:35:51;22.10;99.90
43679;DHT22;29279;50.858;4.392;2023-06-22T02:38:16;22.10;99.90
43679;DHT22;29279;50.858;4.392;2023-06-22T02:40:43;22.20;99.90
43679;DHT22;29279;50.858;4.392;2023-06-22T02:43:08;22.20;99.90
43679;DHT22;29279;50.858;4.392;2023-06-22T02:45:34;22.10;99.90
43679;DHT22;29279;50.858;4.392;2023-06-22T02:48:00;22.10;99.90
43679;DHT22;29279;50.858;4.392;2023-06-22T02:50:25;22.10;99.90
43679;DHT22;29279;50.858;4.392;2023-06-22T02:52:51;22.10;99.90
43679;DHT22;29279;50.858;4.392;2023-06-22T02:55:17;22.10;99.90
43679;DHT22;29279;50.858;4.392;2023-06-22T02:57:42;22.10;99.90
43679;DHT22;29279;50.858;4.392;2023-06-22T03:00:10;22.10;99.90
43679;DHT22;29279;50.858;4.392;2023-06-22T03:02:48;22.10;99.90
43679;DHT22;29279;50.858;4.392;2023-06-22T03:05:15;22.10;99.90
43679;DHT22;29279;50.858;4.392;2023-06-22T03:07:48;22.10;99.90
43679;DHT22;29279;50.858;4.392;2023-06-22T03:10:14;22.10;99.90
43679;DHT22;29279;50.858;4.392;2023-06-22T03:12:41;21.90;99.90
43679;DHT22;29279;50.858;4.392;2023-06-22T03:15:09;21.90;99.90
43679;DHT22;29279;50.858;4.392;2023-06-22T03:17:36;21.80;99.90
43679;DHT22;29279;50.858;4.392;2023-06-22T03:20:04;21.90;99.90
43679;DHT22;29279;50.858;4.392;2023-06-22T03:22:40;21.80;99.90
43679;DHT22;29279;50.858;4.392;2023-06-22T03:25:07;21.80;99.90
43679;DHT22;29279;50.858;4.392;2023-06-22T03:27:36;21.80;99.90
43679;DHT22;29279;50.858;4.392;2023-06-22T03:30:02;21.70;99.90
43679;DHT22;29279;50.858;4.392;2023-06-22T03:32:28;21.80;99.90
43679;DHT22;29279;50.858;4.392;2023-06-22T03:34:54;21.80;99.90
43679;DHT22;29279;50.858;4.392;2023-06-22T03:37:19;21.80;99.90
43679;DHT22;29279;50.858;4.392;2023-06-22T03:39:45;21.80;99.90
43679;DHT22;29279;50.858;4.392;2023-06-22T03:42:10;21.90;99.90
43679;DHT22;29279;50.858;4.392;2023-06-22T03:44:36;21.80;99.90
43679;DHT22;29279;50.858;4.392;2023-06-22T03:47:04;21.90;99.90
43679;DHT22;29279;50.858;4.392;2023-06-22T03:49:29;21.90;99.90
43679;DHT22;29279;50.858;4.392;2023-06-22T03:51:55;21.90;99.90
43679;DHT22;29279;50.858;4.392;2023-06-22T03:54:21;21.90;99.90
43679;DHT22;29279;50.858;4.392;2023-06-22T03:56:46;21.90;99.90
43679;DHT22;29279;50.858;4.392;2023-06-22T03:59:12;21.90;99.90
43679;DHT22;29279;50.858;4.392;2023-06-22T04:01:38;21.90;99.90
43679;DHT22;29279;50.858;4.392;2023-06-22T04:04:03;21.90;99.90
43679;DHT22;29279;50.858;4.392;2023-06-22T04:06:30;21.90;99.90
43679;DHT22;29279;50.858;4.392;2023-06-22T04:08:56;22.00;99.90
43679;DHT22;29279;50.858;4.392;2023-06-22T04:11:21;22.10;99.90
43679;DHT22;29279;50.858;4.392;2023-06-22T04:13:47;22.10;99.90
43679;DHT22;29279;50.858;4.392;2023-06-22T04:16:14;22.10;99.90
43679;DHT22;29279;50.858;4.392;2023-06-22T04:18:40;22.10;99.90
43679;DHT22;29279;50.858;4.392;2023-06-22T04:21:05;22.10;99.90
43679;DHT22;29279;50.858;4.392;2023-06-22T04:23:31;22.10;99.90
43679;DHT22;29279;50.858;4.392;2023-06-22T04:25:56;22.10;99.90
43679;DHT22;29279;50.858;4.392;2023-06-22T04:28:23;22.10;99.90
43679;DHT22;29279;50.858;4.392;2023-06-22T04:30:49;22.10;99.90
43679;DHT22;29279;50.858;4.392;2023-06-22T04:33:16;22.10;99.90
43679;DHT22;29279;50.858;4.392;2023-06-22T04:35:44;21.80;99.90
43679;DHT22;29279;50.858;4.392;2023-06-22T04:38:12;21.70;99.90
43679;DHT22;29279;50.858;4.392;2023-06-22T04:40:39;21.80;99.90
43679;DHT22;29279;50.858;4.392;2023-06-22T04:43:05;21.70;99.90
43679;DHT22;29279;50.858;4.392;2023-06-22T04:45:32;21.60;99.90
43679;DHT22;29279;50.858;4.392;2023-06-22T04:47:58;21.60;99.90
43679;DHT22;29279;50.858;4.392;2023-06-22T04:50:24;21.60;99.90
43679;DHT22;29279;50.858;4.392;2023-06-22T04:52:50;21.60;99.90
43679;DHT22;29279;50.858;4.392;2023-06-22T04:55:17;21.60;99.90
43679;DHT22;29279;50.858;4.392;2023-06-22T04:57:47;21.80;99.90
43679;DHT22;29279;50.858;4.392;2023-06-22T05:00:17;21.70;99.90
43679;DHT22;29279;50.858;4.392;2023-06-22T05:02:45;21.70;99.90
43679;DHT22;29279;50.858;4.392;2023-06-22T05:05:12;21.80;99.90
43679;DHT22;29279;50.858;4.392;2023-06-22T05:07:43;21.90;99.90
43679;DHT22;29279;50.858;4.392;2023-06-22T05:10:12;21.90;99.90
43679;DHT22;29279;50.858;4.392;2023-06-22T05:12:38;22.00;99.90
43679;DHT22;29279;50.858;4.392;2023-06-22T05:15:06;22.00;99.90
43679;DHT22;29279;50.858;4.392;2023-06-22T05:17:32;22.10;99.90
43679;DHT22;29279;50.858;4.392;2023-06-22T05:19:57;22.20;99.90
43679;DHT22;29279;50.858;4.392;2023-06-22T05:22:23;22.20;99.90
43679;DHT22;29279;50.858;4.392;2023-06-22T05:24:49;22.20;99.90
43679;DHT22;29279;50.858;4.392;2023-06-22T05:27:15;22.20;99.90
43679;DHT22;29279;50.858;4.392;2023-06-22T05:29:41;22.20;99.90
43679;DHT22;29279;50.858;4.392;2023-06-22T05:32:08;22.30;99.90
43679;DHT22;29279;50.858;4.392;2023-06-22T05:34:33;22.20;99.90
43679;DHT22;29279;50.858;4.392;2023-06-22T05:36:59;22.30;99.90
43679;DHT22;29279;50.858;4.392;2023-06-22T05:39:25;22.20;99.90
43679;DHT22;29279;50.858;4.392;2023-06-22T05:41:51;22.20;99.90
43679;DHT22;29279;50.858;4.392;2023-06-22T05:44:18;22.20;99.90
43679;DHT22;29279;50.858;4.392;2023-06-22T05:46:44;22.20;99.90
43679;DHT22;29279;50.858;4.392;2023-06-22T05:49:12;22.20;99.90
43679;DHT22;29279;50.858;4.392;2023-06-22T05:51:38;22.20;99.90
43679;DHT22;29279;50.858;4.392;2023-06-22T05:54:04;22.20;99.90
43679;DHT22;29279;50.858;4.392;2023-06-22T05:56:29;22.10;99.90
43679;DHT22;29279;50.858;4.392;2023-06-22T05:58:55;22.00;99.90
43679;DHT22;29279;50.858;4.392;2023-06-22T06:01:21;21.90;99.90
43679;DHT22;29279;50.858;4.392;2023-06-22T06:03:47;21.80;99.90
43679;DHT22;29279;50.858;4.392;2023-06-22T06:06:15;21.70;99.90
43679;DHT22;29279;50.858;4.392;2023-06-22T06:08:41;21.70;99.90
43679;DHT22;29279;50.858;4.392;2023-06-22T06:11:06;21.70;99.90
43679;DHT22;29279;50.858;4.392;2023-06-22T06:13:32;21.70;99.90
43679;DHT22;29279;50.858;4.392;2023-06-22T06:15:58;21.80;99.90
43679;DHT22;29279;50.858;4.392;2023-06-22T06:18:24;21.90;99.90
43679;DHT22;29279;50.858;4.392;2023-06-22T06:20:50;21.90;99.90
43679;DHT22;29279;50.858;4.392;2023-06-22T06:23:16;21.90;99.90
43679;DHT22;29279;50.858;4.392;2023-06-22T06:25:42;22.00;99.90
43679;DHT22;29279;50.858;4.392;2023-06-22T06:28:07;22.00;99.90
43679;DHT22;29279;50.858;4.392;2023-06-22T06:30:33;22.00;99.90
43679;DHT22;29279;50.858;4.392;2023-06-22T06:33:00;22.10;99.90
43679;DHT22;29279;50.858;4.392;2023-06-22T06:35:25;22.10;99.90
43679;DHT22;29279;50.858;4.392;2023-06-22T06:37:51;22.20;99.90
43679;DHT22;29279;50.858;4.392;2023-06-22T06:40:18;22.30;99.90
43679;DHT22;29279;50.858;4.392;2023-06-22T06:42:47;22.30;99.90
43679;DHT22;29279;50.858;4.392;2023-06-22T06:45:22;22.30;99.90
43679;DHT22;29279;50.858;4.392;2023-06-22T06:47:49;22.40;99.90
43679;DHT22;29279;50.858;4.392;2023-06-22T06:50:15;22.40;99.90
43679;DHT22;29279;50.858;4.392;2023-06-22T06:52:41;22.40;99.90
43679;DHT22;29279;50.858;4.392;2023-06-22T06:55:08;22.40;99.90
43679;DHT22;29279;50.858;4.392;2023-06-22T06:57:41;22.50;99.90
43679;DHT22;29279;50.858;4.392;2023-06-22T07:00:09;22.50;99.90
43679;DHT22;29279;50.858;4.392;2023-06-22T07:02:42;22.60;99.90
43679;DHT22;29279;50.858;4.392;2023-06-22T07:05:10;22.60;99.90
43679;DHT22;29279;50.858;4.392;2023-06-22T07:07:36;22.70;99.90
43679;DHT22;29279;50.858;4.392;2023-06-22T07:10:02;22.70;99.90
43679;DHT22;29279;50.858;4.392;2023-06-22T07:12:28;22.70;99.90
43679;DHT22;29279;50.858;4.392;2023-06-22T07:15:05;22.70;99.90
43679;DHT22;29279;50.858;4.392;2023-06-22T07:17:33;22.70;99.90
43679;DHT22;29279;50.858;4.392;2023-06-22T07:19:59;22.80;99.90
43679;DHT22;29279;50.858;4.392;2023-06-22T07:22:24;22.90;99.90
43679;DHT22;29279;50.858;4.392;2023-06-22T07:24:50;23.10;99.90
43679;DHT22;29279;50.858;4.392;2023-06-22T07:27:16;23.20;99.90
43679;DHT22;29279;50.858;4.392;2023-06-22T07:29:45;23.30;99.90
43679;DHT22;29279;50.858;4.392;2023-06-22T07:32:11;23.40;99.90
43679;DHT22;29279;50.858;4.392;2023-06-22T07:34:36;23.50;99.90
43679;DHT22;29279;50.858;4.392;2023-06-22T07:37:02;23.50;99.90
43679;DHT22;29279;50.858;4.392;2023-06-22T07:39:29;23.40;99.90
43679;DHT22;29279;50.858;4.392;2023-06-22T07:41:55;23.50;99.90
43679;DHT22;29279;50.858;4.392;2023-06-22T07:44:20;23.40;99.90
43679;DHT22;29279;50.858;4.392;2023-06-22T07:46:47;23.50;99.90
43679;DHT22;29279;50.858;4.392;2023-06-22T07:49:12;23.60;99.90
43679;DHT22;29279;50.858;4.392;2023-06-22T07:51:38;23.50;99.90
43679;DHT22;29279;50.858;4.392;2023-06-22T07:54:03;23.50;99.90
43679;DHT22;29279;50.858;4.392;2023-06-22T07:56:29;23.50;99.90
43679;DHT22;29279;50.858;4.392;2023-06-22T07:58:55;23.50;99.90
43679;DHT22;29279;50.858;4.392;2023-06-22T08:01:23;23.50;99.90
43679;DHT22;29279;50.858;4.392;2023-06-22T08:03:49;23.50;99.90
43679;DHT22;29279;50.858;4.392;2023-06-22T08:06:15;23.40;99.90
43679;DHT22;29279;50.858;4.392;2023-06-22T08:08:42;23.40;99.90
43679;DHT22;29279;50.858;4.392;2023-06-22T08:11:08;23.40;99.90
43679;DHT22;29279;50.858;4.392;2023-06-22T08:13:34;23.40;99.90
43679;DHT22;29279;50.858;4.392;2023-06-22T08:16:00;23.30;99.90
43679;DHT22;29279;50.858;4.392;2023-06-22T08:18:25;23.20;99.90
43679;DHT22;29279;50.858;4.392;2023-06-22T08:20:51;23.10;99.90
43679;DHT22;29279;50.858;4.392;2023-06-22T08:23:17;23.10;99.90
43679;DHT22;29279;50.858;4.392;2023-06-22T08:25:43;23.10;99.90
43679;DHT22;29279;50.858;4.392;2023-06-22T08:28:09;23.20;99.90
43679;DHT22;29279;50.858;4.392;2023-06-22T08:30:35;23.10;99.90
43679;DHT22;29279;50.858;4.392;2023-06-22T08:33:00;23.10;99.90
43679;DHT22;29279;50.858;4.392;2023-06-22T08:35:26;23.10;99.90
43679;DHT22;29279;50.858;4.392;2023-06-22T08:37:52;23.00;99.90
43679;DHT22;29279;50.858;4.392;2023-06-22T08:40:21;22.90;99.90
43679;DHT22;29279;50.858;4.392;2023-06-22T08:42:47;22.90;99.90
43679;DHT22;29279;50.858;4.392;2023-06-22T08:45:13;22.80;99.90
43679;DHT22;29279;50.858;4.392;2023-06-22T08:47:40;22.70;99.90
43679;DHT22;29279;50.858;4.392;2023-06-22T08:50:09;22.60;99.90
43679;DHT22;29279;50.858;4.392;2023-06-22T08:52:36;22.60;99.90
43679;DHT22;29279;50.858;4.392;2023-06-22T08:55:02;22.60;99.90
43679;DHT22;29279;50.858;4.392;2023-06-22T08:57:28;22.60;99.90
43679;DHT22;29279;50.858;4.392;2023-06-22T08:59:54;22.70;99.90
43679;DHT22;29279;50.858;4.392;2023-06-22T09:02:26;22.70;99.90
43679;DHT22;29279;50.858;4.392;2023-06-22T09:04:56;22.80;99.90
43679;DHT22;29279;50.858;4.392;2023-06-22T09:07:23;22.80;99.90
43679;DHT22;29279;50.858;4.392;2023-06-22T09:09:50;22.80;99.90
43679;DHT22;29279;50.858;4.392;2023-06-22T09:12:17;22.70;99.90
43679;DHT22;29279;50.858;4.392;2023-06-22T09:14:42;22.70;99.90
43679;DHT22;29279;50.858;4.392;2023-06-22T09:17:08;22.70;99.90
43679;DHT22;29279;50.858;4.392;2023-06-22T09:19:34;22.70;99.90
43679;DHT22;29279;50.858;4.392;2023-06-22T09:22:00;22.90;99.90
43679;DHT22;29279;50.858;4.392;2023-06-22T09:24:25;22.90;99.90
43679;DHT22;29279;50.858;4.392;2023-06-22T09:26:51;22.90;99.90
43679;DHT22;29279;50.858;4.392;2023-06-22T09:29:17;23.00;99.90
43679;DHT22;29279;50.858;4.392;2023-06-22T09:31:42;23.00;99.90
43679;DHT22;29279;50.858;4.392;2023-06-22T09:34:09;23.00;99.90
43679;DHT22;29279;50.858;4.392;2023-06-22T09:36:35;23.00;99.90
43679;DHT22;29279;50.858;4.392;2023-06-22T09:39:01;23.00;99.90
43679;DHT22;29279;50.858;4.392;2023-06-22T09:41:31;23.00;99.90
43679;DHT22;29279;50.858;4.392;2023-06-22T09:43:57;23.00;99.90
43679;DHT22;29279;50.858;4.392;2023-06-22T09:46:22;23.00;99.90
43679;DHT22;29279;50.858;4.392;2023-06-22T09:48:50;22.70;99.90
43679;DHT22;29279;50.858;4.392;2023-06-22T09:51:16;22.40;99.90
43679;DHT22;29279;50.858;4.392;2023-06-22T09:53:42;21.90;99.90
43679;DHT22;29279;50.858;4.392;2023-06-22T09:56:08;21.70;99.90
43679;DHT22;29279;50.858;4.392;2023-06-22T09:58:40;21.60;99.90
43679;DHT22;29279;50.858;4.392;2023-06-22T10:01:06;21.40;99.90
43679;DHT22;29279;50.858;4.392;2023-06-22T10:03:32;21.00;99.90
43679;DHT22;29279;50.858;4.392;2023-06-22T10:05:58;20.50;99.90
43679;DHT22;29279;50.858;4.392;2023-06-22T10:08:23;20.20;99.90
43679;DHT22;29279;50.858;4.392;2023-06-22T10:10:49;20.20;99.90
43679;DHT22;29279;50.858;4.392;2023-06-22T10:13:14;20.20;99.90
43679;DHT22;29279;50.858;4.392;2023-06-22T10:15:41;20.30;99.90
43679;DHT22;29279;50.858;4.392;2023-06-22T10:18:07;20.40;99.90
43679;DHT22;29279;50.858;4.392;2023-06-22T10:20:33;20.40;99.90
43679;DHT22;29279;50.858;4.392;2023-06-22T10:22:58;20.40;99.90
43679;DHT22;29279;50.858;4.392;2023-06-22T10:25:24;20.40;99.90
43679;DHT22;29279;50.858;4.392;2023-06-22T10:27:50;20.50;99.90
43679;DHT22;29279;50.858;4.392;2023-06-22T10:30:16;20.50;99.90
43679;DHT22;29279;50.858;4.392;2023-06-22T10:32:42;20.50;99.90
43679;DHT22;29279;50.858;4.392;2023-06-22T10:35:09;20.50;99.90
43679;DHT22;29279;50.858;4.392;2023-06-22T10:37:36;20.40;99.90
43679;DHT22;29279;50.858;4.392;2023-06-22T10:40:02;20.40;99.90
43679;DHT22;29279;50.858;4.392;2023-06-22T10:42:29;20.40;99.90
43679;DHT22;29279;50.858;4.392;2023-06-22T10:44:55;20.50;99.90
43679;DHT22;29279;50.858;4.392;2023-06-22T10:47:20;20.60;99.90
43679;DHT22;29279;50.858;4.392;2023-06-22T10:49:46;20.50;99.90
43679;DHT22;29279;50.858;4.392;2023-06-22T10:52:12;20.50;99.90
43679;DHT22;29279;50.858;4.392;2023-06-22T10:54:38;20.60;99.90
43679;DHT22;29279;50.858;4.392;2023-06-22T10:57:04;20.60;99.90
43679;DHT22;29279;50.858;4.392;2023-06-22T10:59:30;20.70;99.90
43679;DHT22;29279;50.858;4.392;2023-06-22T11:01:56;20.70;99.90
43679;DHT22;29279;50.858;4.392;2023-06-22T11:04:22;20.70;99.90
43679;DHT22;29279;50.858;4.392;2023-06-22T11:06:48;20.70;99.90
43679;DHT22;29279;50.858;4.392;2023-06-22T11:09:14;20.80;99.90
43679;DHT22;29279;50.858;4.392;2023-06-22T11:11:49;20.80;99.90
43679;DHT22;29279;50.858;4.392;2023-06-22T11:14:15;20.80;99.90
43679;DHT22;29279;50.858;4.392;2023-06-22T11:16:41;20.90;99.90
43679;DHT22;29279;50.858;4.392;2023-06-22T11:19:07;21.00;99.90
43679;DHT22;29279;50.858;4.392;2023-06-22T11:21:33;21.00;99.90
43679;DHT22;29279;50.858;4.392;2023-06-22T11:23:59;21.10;99.90
43679;DHT22;29279;50.858;4.392;2023-06-22T11:26:25;21.00;99.90
43679;DHT22;29279;50.858;4.392;2023-06-22T11:28:54;21.10;99.90
43679;DHT22;29279;50.858;4.392;2023-06-22T11:31:20;21.10;99.90
43679;DHT22;29279;50.858;4.392;2023-06-22T11:33:45;21.00;99.90
43679;DHT22;29279;50.858;4.392;2023-06-22T11:36:12;20.90;99.90
43679;DHT22;29279;50.858;4.392;2023-06-22T11:38:38;20.80;99.90
43679;DHT22;29279;50.858;4.392;2023-06-22T11:41:06;20.80;99.90
43679;DHT22;29279;50.858;4.392;2023-06-22T11:43:32;20.90;99.90
43679;DHT22;29279;50.858;4.392;2023-06-22T11:45:57;20.90;99.90
43679;DHT22;29279;50.858;4.392;2023-06-22T11:48:24;20.90;99.90
43679;DHT22;29279;50.858;4.392;2023-06-22T11:50:50;20.90;99.90
43679;DHT22;29279;50.858;4.392;2023-06-22T11:53:16;20.90;99.90
43679;DHT22;29279;50.858;4.392;2023-06-22T11:55:42;20.80;99.90
43679;DHT22;29279;50.858;4.392;2023-06-22T11:58:08;20.90;99.90
43679;DHT22;29279;50.858;4.392;2023-06-22T12:00:33;20.90;99.90
43679;DHT22;29279;50.858;4.392;2023-06-22T12:02:59;20.90;99.90
43679;DHT22;29279;50.858;4.392;2023-06-22T12:05:25;20.90;99.90
43679;DHT22;29279;50.858;4.392;2023-06-22T12:07:53;21.00;99.90
43679;DHT22;29279;50.858;4.392;2023-06-22T12:10:20;20.90;99.90
43679;DHT22;29279;50.858;4.392;2023-06-22T12:12:45;21.00;99.90
43679;DHT22;29279;50.858;4.392;2023-06-22T12:15:11;21.00;99.90
43679;DHT22;29279;50.858;4.392;2023-06-22T12:17:37;21.00;99.90
43679;DHT22;29279;50.858;4.392;2023-06-22T12:20:03;21.00;99.90
43679;DHT22;29279;50.858;4.392;2023-06-22T12:22:32;20.90;99.90
43679;DHT22;29279;50.858;4.392;2023-06-22T12:24:57;20.90;99.90
43679;DHT22;29279;50.858;4.392;2023-06-22T12:27:23;20.90;99.90
43679;DHT22;29279;50.858;4.392;2023-06-22T12:29:49;20.90;99.90
43679;DHT22;29279;50.858;4.392;2023-06-22T12:32:14;20.80;99.90
43679;DHT22;29279;50.858;4.392;2023-06-22T12:34:42;20.90;99.90
43679;DHT22;29279;50.858;4.392;2023-06-22T12:37:08;20.80;99.90
43679;DHT22;29279;50.858;4.392;2023-06-22T12:39:34;20.80;99.90
43679;DHT22;29279;50.858;4.392;2023-06-22T12:42:00;20.80;99.90
43679;DHT22;29279;50.858;4.392;2023-06-22T12:44:26;20.80;99.90
43679;DHT22;29279;50.858;4.392;2023-06-22T12:46:52;20.80;99.90
43679;DHT22;29279;50.858;4.392;2023-06-22T12:49:18;20.80;99.90
43679;DHT22;29279;50.858;4.392;2023-06-22T12:51:44;20.70;99.90
43679;DHT22;29279;50.858;4.392;2023-06-22T12:54:10;20.70;99.90
43679;DHT22;29279;50.858;4.392;2023-06-22T12:56:37;20.70;99.90
43679;DHT22;29279;50.858;4.392;2023-06-22T12:59:03;20.80;99.90
43679;DHT22;29279;50.858;4.392;2023-06-22T13:01:32;20.80;99.90
43679;DHT22;29279;50.858;4.392;2023-06-22T13:03:58;20.80;99.90
43679;DHT22;29279;50.858;4.392;2023-06-22T13:06:25;20.90;99.90
43679;DHT22;29279;50.858;4.392;2023-06-22T13:08:50;20.90;99.90
43679;DHT22;29279;50.858;4.392;2023-06-22T13:11:16;20.90;99.90
43679;DHT22;29279;50.858;4.392;2023-06-22T13:13:44;20.80;99.90
43679;DHT22;29279;50.858;4.392;2023-06-22T13:16:10;20.80;99.90
43679;DHT22;29279;50.858;4.392;2023-06-22T13:18:36;20.90;99.90
43679;DHT22;29279;50.858;4.392;2023-06-22T13:21:03;20.90;99.90
43679;DHT22;29279;50.858;4.392;2023-06-22T13:23:29;20.90;99.90
43679;DHT22;29279;50.858;4.392;2023-06-22T13:25:54;20.90;99.90
43679;DHT22;29279;50.858;4.392;2023-06-22T13:28:20;20.80;99.90
43679;DHT22;29279;50.858;4.392;2023-06-22T13:30:46;20.90;99.90
43679;DHT22;29279;50.858;4.392;2023-06-22T13:33:16;20.90;99.90
43679;DHT22;29279;50.858;4.392;2023-06-22T13:35:42;20.70;99.90
43679;DHT22;29279;50.858;4.392;2023-06-22T13:38:10;20.70;99.90
43679;DHT22;29279;50.858;4.392;2023-06-22T13:40:37;20.50;99.90
43679;DHT22;29279;50.858;4.392;2023-06-22T13:43:06;20.50;99.90
43679;DHT22;29279;50.858;4.392;2023-06-22T13:45:32;20.50;99.90
43679;DHT22;29279;50.858;4.392;2023-06-22T13:47:58;20.50;99.90
43679;DHT22;29279;50.858;4.392;2023-06-22T13:50:23;20.40;99.90
43679;DHT22;29279;50.858;4.392;2023-06-22T13:52:49;20.40;99.90
43679;DHT22;29279;50.858;4.392;2023-06-22T13:55:15;20.40;99.90
43679;DHT22;29279;50.858;4.392;2023-06-22T13:57:41;20.40;99.90
43679;DHT22;29279;50.858;4.392;2023-06-22T14:00:07;20.30;99.90
43679;DHT22;29279;50.858;4.392;2023-06-22T14:02:38;20.30;99.90
43679;DHT22;29279;50.858;4.392;2023-06-22T14:05:05;20.30;99.90
43679;DHT22;29279;50.858;4.392;2023-06-22T14:07:31;20.30;99.90
43679;DHT22;29279;50.858;4.392;2023-06-22T14:09:57;20.30;99.90
43679;DHT22;29279;50.858;4.392;2023-06-22T14:12:24;20.30;99.90
43679;DHT22;29279;50.858;4.392;2023-06-22T14:14:50;20.30;99.90
43679;DHT22;29279;50.858;4.392;2023-06-22T14:17:15;20.40;99.90
43679;DHT22;29279;50.858;4.392;2023-06-22T14:19:41;20.50;99.90
43679;DHT22;29279;50.858;4.392;2023-06-22T14:22:07;20.60;99.90
43679;DHT22;29279;50.858;4.392;2023-06-22T14:24:32;20.60;99.90
43679;DHT22;29279;50.858;4.392;2023-06-22T14:26:58;20.60;99.90
43679;DHT22;29279;50.858;4.392;2023-06-22T14:29:25;20.60;99.90
43679;DHT22;29279;50.858;4.392;2023-06-22T14:31:51;20.50;99.90
43679;DHT22;29279;50.858;4.392;2023-06-22T14:34:16;20.50;99.90
43679;DHT22;29279;50.858;4.392;2023-06-22T14:36:42;20.40;99.90
43679;DHT22;29279;50.858;4.392;2023-06-22T14:39:09;20.40;99.90
43679;DHT22;29279;50.858;4.392;2023-06-22T14:41:34;20.40;99.90
43679;DHT22;29279;50.858;4.392;2023-06-22T14:44:00;20.30;99.90
43679;DHT22;29279;50.858;4.392;2023-06-22T14:46:26;20.30;99.90
43679;DHT22;29279;50.858;4.392;2023-06-22T14:48:52;20.30;99.90
43679;DHT22;29279;50.858;4.392;2023-06-22T14:51:18;20.30;99.90
43679;DHT22;29279;50.858;4.392;2023-06-22T14:53:44;20.30;99.90
43679;DHT22;29279;50.858;4.392;2023-06-22T14:56:10;20.40;99.90
43679;DHT22;29279;50.858;4.392;2023-06-22T14:58:36;20.40;99.90
43679;DHT22;29279;50.858;4.392;2023-06-22T15:01:05;20.40;99.90
43679;DHT22;29279;50.858;4.392;2023-06-22T15:03:34;20.50;99.90
43679;DHT22;29279;50.858;4.392;2023-06-22T15:06:01;20.50;99.90
43679;DHT22;29279;50.858;4.392;2023-06-22T15:08:27;20.50;99.90
43679;DHT22;29279;50.858;4.392;2023-06-22T15:10:53;20.60;99.90
43679;DHT22;29279;50.858;4.392;2023-06-22T15:13:19;20.70;99.90
43679;DHT22;29279;50.858;4.392;2023-06-22T15:15:46;20.70;99.90
43679;DHT22;29279;50.858;4.392;2023-06-22T15:18:13;20.70;99.90
43679;DHT22;29279;50.858;4.392;2023-06-22T15:20:39;20.70;99.90
43679;DHT22;29279;50.858;4.392;2023-06-22T15:23:06;20.70;99.90
43679;DHT22;29279;50.858;4.392;2023-06-22T15:25:32;20.80;99.90
43679;DHT22;29279;50.858;4.392;2023-06-22T15:27:58;20.80;99.90
43679;DHT22;29279;50.858;4.392;2023-06-22T15:30:23;20.80;99.90
43679;DHT22;29279;50.858;4.392;2023-06-22T15:32:49;20.80;99.90
43679;DHT22;29279;50.858;4.392;2023-06-22T15:35:15;20.90;99.90